sensor_id;sensor_type;location;lat;lon;timestamp;P1;durP1;ratioP1;P2;durP2;ratioP2
7823;SDS011;3957;48.61947800;9.05303100;2023-05-10T00:00:16;2.50;;;1.52;;
7823;SDS011;3957;48.61947800;9.05303100;2023-05-10T00:01:18;1.80;;;1.40;;
7823;SDS011;3957;48.61947800;9.05303100;2023-05-10T00:02:20;1.65;;;1.33;;
7823;SDS011;3957;48.61947800;9.05303100;2023-05-10T00:03:21;1.27;;;1.17;;
7823;SDS011;3957;48.61947800;9.05303100;2023-05-10T00:04:23;1.50;;;1.40;;
7823;SDS011;3957;48.61947800;9.05303100;2023-05-10T00:05:28;1.30;;;1.20;;
7823;SDS011;3957;48.61947800;9.05303100;2023-05-10T00:06:30;1.83;;;1.20;;
7823;SDS011;3957;48.61947800;9.05303100;2023-05-10T00:07:32;1.27;;;1.08;;
7823;SDS011;3957;48.61947800;9.05303100;2023-05-10T00:08:34;4.05;;;1.48;;
7823;SDS011;3957;48.61947800;9.05303100;2023-05-10T00:09:36;2.40;;;1.27;;
7823;SDS011;3957;48.61947800;9.05303100;2023-05-10T00:10:37;1.30;;;1.20;;
7823;SDS011;3957;48.61947800;9.05303100;2023-05-10T00:11:39;1.83;;;1.20;;
7823;SDS011;3957;48.61947800;9.05303100;2023-05-10T00:12:41;1.70;;;1.35;;
7823;SDS011;3957;48.61947800;9.05303100;2023-05-10T00:13:43;1.40;;;1.30;;
7823;SDS011;3957;48.61947800;9.05303100;2023-05-10T00:14:44;1.20;;;1.10;;
7823;SDS011;3957;48.61947800;9.05303100;2023-05-10T00:15:46;1.38;;;1.20;;
7823;SDS011;3957;48.61947800;9.05303100;2023-05-10T00:16:47;1.40;;;1.30;;
7823;SDS011;3957;48.61947800;9.05303100;2023-05-10T00:17:49;1.10;;;1.00;;
7823;SDS011;3957;48.61947800;9.05303100;2023-05-10T00:18:51;0.90;;;0.90;;
7823;SDS011;3957;48.61947800;9.05303100;2023-05-10T00:19:52;0.90;;;0.90;;
7823;SDS011;3957;48.61947800;9.05303100;2023-05-10T00:20:54;0.82;;;0.82;;
7823;SDS011;3957;48.61947800;9.05303100;2023-05-10T00:21:55;3.95;;;0.90;;
7823;SDS011;3957;48.61947800;9.05303100;2023-05-10T00:22:57;0.98;;;0.95;;
7823;SDS011;3957;48.61947800;9.05303100;2023-05-10T00:23:58;0.77;;;0.77;;
7823;SDS011;3957;48.61947800;9.05303100;2023-05-10T00:25:00;2.60;;;0.90;;
7823;SDS011;3957;48.61947800;9.05303100;2023-05-10T00:26:02;2.20;;;0.77;;
7823;SDS011;3957;48.61947800;9.05303100;2023-05-10T00:27:03;0.85;;;0.82;;
7823;SDS011;3957;48.61947800;9.05303100;2023-05-10T00:28:05;0.80;;;0.80;;
7823;SDS011;3957;48.61947800;9.05303100;2023-05-10T00:29:06;1.55;;;0.70;;
7823;SDS011;3957;48.61947800;9.05303100;2023-05-10T00:30:09;2.20;;;0.80;;
7823;SDS011;3957;48.61947800;9.05303100;2023-05-10T00:31:10;0.80;;;0.70;;
7823;SDS011;3957;48.61947800;9.05303100;2023-05-10T00:32:12;0.65;;;0.65;;
7823;SDS011;3957;48.61947800;9.05303100;2023-05-10T00:33:15;3.50;;;0.65;;
7823;SDS011;3957;48.61947800;9.05303100;2023-05-10T00:34:16;1.88;;;0.80;;
7823;SDS011;3957;48.61947800;9.05303100;2023-05-10T00:35:18;1.50;;;0.60;;
7823;SDS011;3957;48.61947800;9.05303100;2023-05-10T00:36:21;1.20;;;0.85;;
7823;SDS011;3957;48.61947800;9.05303100;2023-05-10T00:37:23;0.57;;;0.57;;
7823;SDS011;3957;48.61947800;9.05303100;2023-05-10T00:38:24;0.80;;;0.80;;
7823;SDS011;3957;48.61947800;9.05303100;2023-05-10T00:39:26;0.75;;;0.68;;
7823;SDS011;3957;48.61947800;9.05303100;2023-05-10T00:40:29;0.70;;;0.70;;
7823;SDS011;3957;48.61947800;9.05303100;2023-05-10T00:41:36;0.60;;;0.60;;
7823;SDS011;3957;48.61947800;9.05303100;2023-05-10T00:42:40;1.77;;;0.60;;
7823;SDS011;3957;48.61947800;9.05303100;2023-05-10T00:43:41;0.60;;;0.60;;
7823;SDS011;3957;48.61947800;9.05303100;2023-05-10T00:44:43;0.60;;;0.60;;
7823;SDS011;3957;48.61947800;9.05303100;2023-05-10T00:45:45;1.10;;;0.70;;
7823;SDS011;3957;48.61947800;9.05303100;2023-05-10T00:46:47;0.73;;;0.73;;
7823;SDS011;3957;48.61947800;9.05303100;2023-05-10T00:47:50;2.78;;;0.57;;
7823;SDS011;3957;48.61947800;9.05303100;2023-05-10T00:48:53;0.90;;;0.60;;
7823;SDS011;3957;48.61947800;9.05303100;2023-05-10T00:49:55;0.68;;;0.68;;
7823;SDS011;3957;48.61947800;9.05303100;2023-05-10T00:50:57;0.90;;;0.55;;
7823;SDS011;3957;48.61947800;9.05303100;2023-05-10T00:51:58;0.60;;;0.60;;
7823;SDS011;3957;48.61947800;9.05303100;2023-05-10T00:53:00;1.80;;;0.70;;
7823;SDS011;3957;48.61947800;9.05303100;2023-05-10T00:54:03;0.50;;;0.50;;
7823;SDS011;3957;48.61947800;9.05303100;2023-05-10T00:55:05;0.60;;;0.60;;
7823;SDS011;3957;48.61947800;9.05303100;2023-05-10T00:56:07;0.60;;;0.60;;
7823;SDS011;3957;48.61947800;9.05303100;2023-05-10T00:57:09;1.17;;;0.60;;
7823;SDS011;3957;48.61947800;9.05303100;2023-05-10T00:58:11;0.70;;;0.70;;
7823;SDS011;3957;48.61947800;9.05303100;2023-05-10T00:59:13;0.95;;;0.57;;
7823;SDS011;3957;48.61947800;9.05303100;2023-05-10T01:00:19;0.60;;;0.60;;
7823;SDS011;3957;48.61947800;9.05303100;2023-05-10T01:01:20;0.90;;;0.60;;
7823;SDS011;3957;48.61947800;9.05303100;2023-05-10T01:02:25;0.60;;;0.60;;
7823;SDS011;3957;48.61947800;9.05303100;2023-05-10T01:03:27;0.90;;;0.60;;
7823;SDS011;3957;48.61947800;9.05303100;2023-05-10T01:04:29;0.90;;;0.73;;
7823;SDS011;3957;48.61947800;9.05303100;2023-05-10T01:05:31;0.50;;;0.50;;
7823;SDS011;3957;48.61947800;9.05303100;2023-05-10T01:06:33;1.70;;;0.73;;
7823;SDS011;3957;48.61947800;9.05303100;2023-05-10T01:07:34;1.30;;;0.67;;
7823;SDS011;3957;48.61947800;9.05303100;2023-05-10T01:08:37;0.70;;;0.70;;
7823;SDS011;3957;48.61947800;9.05303100;2023-05-10T01:09:38;0.65;;;0.60;;
7823;SDS011;3957;48.61947800;9.05303100;2023-05-10T01:10:40;0.70;;;0.70;;
7823;SDS011;3957;48.61947800;9.05303100;2023-05-10T01:11:43;0.75;;;0.68;;
7823;SDS011;3957;48.61947800;9.05303100;2023-05-10T01:12:46;1.30;;;0.80;;
7823;SDS011;3957;48.61947800;9.05303100;2023-05-10T01:13:50;0.57;;;0.57;;
7823;SDS011;3957;48.61947800;9.05303100;2023-05-10T01:14:56;0.70;;;0.70;;
7823;SDS011;3957;48.61947800;9.05303100;2023-05-10T01:15:59;0.65;;;0.60;;
7823;SDS011;3957;48.61947800;9.05303100;2023-05-10T01:17:03;0.70;;;0.70;;
7823;SDS011;3957;48.61947800;9.05303100;2023-05-10T01:18:07;0.80;;;0.70;;
7823;SDS011;3957;48.61947800;9.05303100;2023-05-10T01:19:14;0.70;;;0.70;;
7823;SDS011;3957;48.61947800;9.05303100;2023-05-10T01:20:20;0.60;;;0.60;;
7823;SDS011;3957;48.61947800;9.05303100;2023-05-10T01:21:23;1.90;;;0.73;;
7823;SDS011;3957;48.61947800;9.05303100;2023-05-10T01:22:44;1.73;;;0.63;;
7823;SDS011;3957;48.61947800;9.05303100;2023-05-10T01:25:31;1.30;;;0.70;;
7823;SDS011;3957;48.61947800;9.05303100;2023-05-10T01:29:08;0.60;;;0.60;;
7823;SDS011;3957;48.61947800;9.05303100;2023-05-10T01:30:32;0.60;;;0.60;;
7823;SDS011;3957;48.61947800;9.05303100;2023-05-10T01:31:59;1.70;;;0.68;;
7823;SDS011;3957;48.61947800;9.05303100;2023-05-10T01:33:19;2.88;;;0.52;;
7823;SDS011;3957;48.61947800;9.05303100;2023-05-10T01:34:30;1.40;;;0.70;;
7823;SDS011;3957;48.61947800;9.05303100;2023-05-10T01:36:03;0.65;;;0.60;;
7823;SDS011;3957;48.61947800;9.05303100;2023-05-10T01:37:13;1.00;;;0.60;;
7823;SDS011;3957;48.61947800;9.05303100;2023-05-10T01:38:33;0.68;;;0.55;;
7823;SDS011;3957;48.61947800;9.05303100;2023-05-10T01:39:50;2.77;;;0.70;;
7823;SDS011;3957;48.61947800;9.05303100;2023-05-10T01:42:07;2.00;;;0.88;;
7823;SDS011;3957;48.61947800;9.05303100;2023-05-10T01:43:14;3.65;;;1.08;;
7823;SDS011;3957;48.61947800;9.05303100;2023-05-10T01:44:40;1.30;;;0.70;;
7823;SDS011;3957;48.61947800;9.05303100;2023-05-10T01:45:47;1.02;;;0.80;;
7823;SDS011;3957;48.61947800;9.05303100;2023-05-10T01:46:53;1.20;;;0.60;;
7823;SDS011;3957;48.61947800;9.05303100;2023-05-10T01:48:06;1.10;;;0.60;;
7823;SDS011;3957;48.61947800;9.05303100;2023-05-10T01:49:24;0.55;;;0.55;;
7823;SDS011;3957;48.61947800;9.05303100;2023-05-10T01:50:29;1.00;;;0.57;;
7823;SDS011;3957;48.61947800;9.05303100;2023-05-10T01:51:37;0.60;;;0.60;;
7823;SDS011;3957;48.61947800;9.05303100;2023-05-10T01:52:42;0.50;;;0.50;;
7823;SDS011;3957;48.61947800;9.05303100;2023-05-10T01:53:49;1.10;;;0.70;;
7823;SDS011;3957;48.61947800;9.05303100;2023-05-10T01:54:53;1.45;;;0.50;;
7823;SDS011;3957;48.61947800;9.05303100;2023-05-10T01:55:59;0.60;;;0.60;;
7823;SDS011;3957;48.61947800;9.05303100;2023-05-10T01:57:03;0.40;;;0.40;;
7823;SDS011;3957;48.61947800;9.05303100;2023-05-10T01:58:10;0.77;;;0.65;;
7823;SDS011;3957;48.61947800;9.05303100;2023-05-10T01:59:17;0.50;;;0.50;;
7823;SDS011;3957;48.61947800;9.05303100;2023-05-10T02:00:20;0.50;;;0.50;;
7823;SDS011;3957;48.61947800;9.05303100;2023-05-10T02:01:25;0.50;;;0.50;;
7823;SDS011;3957;48.61947800;9.05303100;2023-05-10T02:02:28;0.50;;;0.50;;
7823;SDS011;3957;48.61947800;9.05303100;2023-05-10T02:03:31;0.80;;;0.50;;
7823;SDS011;3957;48.61947800;9.05303100;2023-05-10T02:04:37;0.60;;;0.60;;
7823;SDS011;3957;48.61947800;9.05303100;2023-05-10T02:05:41;0.50;;;0.50;;
7823;SDS011;3957;48.61947800;9.05303100;2023-05-10T02:06:43;0.60;;;0.60;;
7823;SDS011;3957;48.61947800;9.05303100;2023-05-10T02:07:49;0.68;;;0.60;;
7823;SDS011;3957;48.61947800;9.05303100;2023-05-10T02:08:52;0.60;;;0.60;;
7823;SDS011;3957;48.61947800;9.05303100;2023-05-10T02:09:54;0.50;;;0.50;;
7823;SDS011;3957;48.61947800;9.05303100;2023-05-10T02:10:57;2.20;;;0.60;;
7823;SDS011;3957;48.61947800;9.05303100;2023-05-10T02:12:02;1.00;;;0.60;;
7823;SDS011;3957;48.61947800;9.05303100;2023-05-10T02:13:07;0.63;;;0.63;;
7823;SDS011;3957;48.61947800;9.05303100;2023-05-10T02:14:10;2.65;;;0.70;;
7823;SDS011;3957;48.61947800;9.05303100;2023-05-10T02:15:13;1.13;;;0.65;;
7823;SDS011;3957;48.61947800;9.05303100;2023-05-10T02:16:19;0.85;;;0.50;;
7823;SDS011;3957;48.61947800;9.05303100;2023-05-10T02:17:26;1.30;;;0.70;;
7823;SDS011;3957;48.61947800;9.05303100;2023-05-10T02:18:29;0.52;;;0.52;;
7823;SDS011;3957;48.61947800;9.05303100;2023-05-10T02:19:33;0.70;;;0.70;;
7823;SDS011;3957;48.61947800;9.05303100;2023-05-10T02:20:37;1.17;;;0.45;;
7823;SDS011;3957;48.61947800;9.05303100;2023-05-10T02:21:39;0.60;;;0.60;;
7823;SDS011;3957;48.61947800;9.05303100;2023-05-10T02:22:42;1.00;;;0.60;;
7823;SDS011;3957;48.61947800;9.05303100;2023-05-10T02:23:48;0.50;;;0.50;;
7823;SDS011;3957;48.61947800;9.05303100;2023-05-10T02:24:54;0.50;;;0.50;;
7823;SDS011;3957;48.61947800;9.05303100;2023-05-10T02:25:56;1.23;;;0.70;;
7823;SDS011;3957;48.61947800;9.05303100;2023-05-10T02:27:02;0.50;;;0.50;;
7823;SDS011;3957;48.61947800;9.05303100;2023-05-10T02:28:05;0.70;;;0.70;;
7823;SDS011;3957;48.61947800;9.05303100;2023-05-10T02:29:09;0.50;;;0.50;;
7823;SDS011;3957;48.61947800;9.05303100;2023-05-10T02:30:13;0.73;;;0.63;;
7823;SDS011;3957;48.61947800;9.05303100;2023-05-10T02:31:16;0.50;;;0.50;;
7823;SDS011;3957;48.61947800;9.05303100;2023-05-10T02:32:19;0.60;;;0.60;;
7823;SDS011;3957;48.61947800;9.05303100;2023-05-10T02:33:24;0.52;;;0.47;;
7823;SDS011;3957;48.61947800;9.05303100;2023-05-10T02:34:27;0.70;;;0.70;;
7823;SDS011;3957;48.61947800;9.05303100;2023-05-10T02:35:29;0.60;;;0.60;;
7823;SDS011;3957;48.61947800;9.05303100;2023-05-10T02:36:32;0.80;;;0.80;;
7823;SDS011;3957;48.61947800;9.05303100;2023-05-10T02:37:34;0.80;;;0.70;;
7823;SDS011;3957;48.61947800;9.05303100;2023-05-10T02:38:38;2.97;;;0.90;;
7823;SDS011;3957;48.61947800;9.05303100;2023-05-10T02:39:40;0.50;;;0.50;;
7823;SDS011;3957;48.61947800;9.05303100;2023-05-10T02:40:45;1.30;;;0.60;;
7823;SDS011;3957;48.61947800;9.05303100;2023-05-10T02:41:50;0.50;;;0.50;;
7823;SDS011;3957;48.61947800;9.05303100;2023-05-10T02:42:54;1.05;;;0.80;;
7823;SDS011;3957;48.61947800;9.05303100;2023-05-10T02:43:59;0.77;;;0.70;;
7823;SDS011;3957;48.61947800;9.05303100;2023-05-10T02:45:04;1.40;;;0.80;;
7823;SDS011;3957;48.61947800;9.05303100;2023-05-10T02:46:09;0.60;;;0.60;;
7823;SDS011;3957;48.61947800;9.05303100;2023-05-10T02:47:11;1.50;;;0.80;;
7823;SDS011;3957;48.61947800;9.05303100;2023-05-10T02:48:12;0.60;;;0.60;;
7823;SDS011;3957;48.61947800;9.05303100;2023-05-10T02:49:14;0.85;;;0.80;;
7823;SDS011;3957;48.61947800;9.05303100;2023-05-10T02:50:16;0.70;;;0.70;;
7823;SDS011;3957;48.61947800;9.05303100;2023-05-10T02:51:19;1.30;;;0.70;;
7823;SDS011;3957;48.61947800;9.05303100;2023-05-10T02:52:27;1.52;;;0.70;;
7823;SDS011;3957;48.61947800;9.05303100;2023-05-10T02:53:35;0.70;;;0.70;;
7823;SDS011;3957;48.61947800;9.05303100;2023-05-10T02:54:41;0.70;;;0.70;;
7823;SDS011;3957;48.61947800;9.05303100;2023-05-10T02:55:47;0.93;;;0.80;;
7823;SDS011;3957;48.61947800;9.05303100;2023-05-10T02:56:54;1.15;;;0.90;;
7823;SDS011;3957;48.61947800;9.05303100;2023-05-10T02:58:04;1.15;;;1.00;;
7823;SDS011;3957;48.61947800;9.05303100;2023-05-10T02:59:05;0.80;;;0.75;;
7823;SDS011;3957;48.61947800;9.05303100;2023-05-10T03:00:07;1.45;;;0.85;;
7823;SDS011;3957;48.61947800;9.05303100;2023-05-10T03:01:09;1.20;;;0.70;;
7823;SDS011;3957;48.61947800;9.05303100;2023-05-10T03:02:12;0.73;;;0.73;;
7823;SDS011;3957;48.61947800;9.05303100;2023-05-10T03:03:14;1.00;;;0.90;;
7823;SDS011;3957;48.61947800;9.05303100;2023-05-10T03:04:16;0.75;;;0.73;;
7823;SDS011;3957;48.61947800;9.05303100;2023-05-10T03:05:17;2.60;;;0.90;;
7823;SDS011;3957;48.61947800;9.05303100;2023-05-10T03:06:20;0.60;;;0.60;;
7823;SDS011;3957;48.61947800;9.05303100;2023-05-10T03:07:22;1.60;;;0.90;;
7823;SDS011;3957;48.61947800;9.05303100;2023-05-10T03:08:24;0.70;;;0.70;;
7823;SDS011;3957;48.61947800;9.05303100;2023-05-10T03:09:26;1.20;;;1.10;;
7823;SDS011;3957;48.61947800;9.05303100;2023-05-10T03:10:28;2.70;;;0.90;;
7823;SDS011;3957;48.61947800;9.05303100;2023-05-10T03:11:38;1.10;;;0.93;;
7823;SDS011;3957;48.61947800;9.05303100;2023-05-10T03:12:50;1.05;;;0.77;;
7823;SDS011;3957;48.61947800;9.05303100;2023-05-10T03:14:07;0.90;;;0.90;;
7823;SDS011;3957;48.61947800;9.05303100;2023-05-10T03:17:10;1.40;;;0.90;;
7823;SDS011;3957;48.61947800;9.05303100;2023-05-10T03:20:00;0.85;;;0.85;;
7823;SDS011;3957;48.61947800;9.05303100;2023-05-10T03:21:06;2.95;;;0.90;;
7823;SDS011;3957;48.61947800;9.05303100;2023-05-10T03:22:17;0.95;;;0.90;;
7823;SDS011;3957;48.61947800;9.05303100;2023-05-10T03:23:43;0.80;;;0.80;;
7823;SDS011;3957;48.61947800;9.05303100;2023-05-10T03:24:49;0.85;;;0.85;;
7823;SDS011;3957;48.61947800;9.05303100;2023-05-10T03:25:52;1.00;;;0.90;;
7823;SDS011;3957;48.61947800;9.05303100;2023-05-10T03:26:55;1.27;;;1.00;;
7823;SDS011;3957;48.61947800;9.05303100;2023-05-10T03:28:00;1.20;;;0.80;;
7823;SDS011;3957;48.61947800;9.05303100;2023-05-10T03:29:05;1.17;;;1.08;;
7823;SDS011;3957;48.61947800;9.05303100;2023-05-10T03:30:11;0.88;;;0.80;;
7823;SDS011;3957;48.61947800;9.05303100;2023-05-10T03:31:15;1.23;;;1.13;;
7823;SDS011;3957;48.61947800;9.05303100;2023-05-10T03:32:18;1.50;;;1.00;;
7823;SDS011;3957;48.61947800;9.05303100;2023-05-10T03:33:20;1.20;;;0.90;;
7823;SDS011;3957;48.61947800;9.05303100;2023-05-10T03:34:25;1.90;;;1.00;;
7823;SDS011;3957;48.61947800;9.05303100;2023-05-10T03:35:27;2.33;;;0.90;;
7823;SDS011;3957;48.61947800;9.05303100;2023-05-10T03:36:28;1.77;;;0.95;;
7823;SDS011;3957;48.61947800;9.05303100;2023-05-10T03:37:30;0.82;;;0.82;;
7823;SDS011;3957;48.61947800;9.05303100;2023-05-10T03:38:32;0.82;;;0.82;;
7823;SDS011;3957;48.61947800;9.05303100;2023-05-10T03:39:34;1.05;;;0.93;;
7823;SDS011;3957;48.61947800;9.05303100;2023-05-10T03:40:36;1.60;;;0.80;;
7823;SDS011;3957;48.61947800;9.05303100;2023-05-10T03:41:38;1.05;;;0.80;;
7823;SDS011;3957;48.61947800;9.05303100;2023-05-10T03:42:39;1.52;;;1.00;;
7823;SDS011;3957;48.61947800;9.05303100;2023-05-10T03:43:41;0.80;;;0.80;;
7823;SDS011;3957;48.61947800;9.05303100;2023-05-10T03:44:43;1.05;;;0.90;;
7823;SDS011;3957;48.61947800;9.05303100;2023-05-10T03:45:44;0.82;;;0.82;;
7823;SDS011;3957;48.61947800;9.05303100;2023-05-10T03:46:46;0.90;;;0.90;;
7823;SDS011;3957;48.61947800;9.05303100;2023-05-10T03:47:48;1.70;;;1.00;;
7823;SDS011;3957;48.61947800;9.05303100;2023-05-10T03:48:49;1.55;;;0.73;;
7823;SDS011;3957;48.61947800;9.05303100;2023-05-10T03:49:51;1.10;;;1.00;;
7823;SDS011;3957;48.61947800;9.05303100;2023-05-10T03:50:53;1.15;;;0.90;;
7823;SDS011;3957;48.61947800;9.05303100;2023-05-10T03:51:54;1.27;;;1.05;;
7823;SDS011;3957;48.61947800;9.05303100;2023-05-10T03:52:56;1.30;;;0.85;;
7823;SDS011;3957;48.61947800;9.05303100;2023-05-10T03:53:58;1.58;;;0.93;;
7823;SDS011;3957;48.61947800;9.05303100;2023-05-10T03:55:00;2.75;;;0.93;;
7823;SDS011;3957;48.61947800;9.05303100;2023-05-10T03:56:04;1.40;;;0.95;;
7823;SDS011;3957;48.61947800;9.05303100;2023-05-10T03:57:05;1.85;;;1.10;;
7823;SDS011;3957;48.61947800;9.05303100;2023-05-10T03:58:10;1.10;;;1.00;;
7823;SDS011;3957;48.61947800;9.05303100;2023-05-10T03:59:13;1.42;;;0.90;;
7823;SDS011;3957;48.61947800;9.05303100;2023-05-10T04:00:15;0.80;;;0.80;;
7823;SDS011;3957;48.61947800;9.05303100;2023-05-10T04:01:17;1.50;;;1.00;;
7823;SDS011;3957;48.61947800;9.05303100;2023-05-10T04:02:20;0.98;;;0.93;;
7823;SDS011;3957;48.61947800;9.05303100;2023-05-10T04:03:22;1.00;;;0.90;;
7823;SDS011;3957;48.61947800;9.05303100;2023-05-10T04:04:24;1.20;;;0.95;;
7823;SDS011;3957;48.61947800;9.05303100;2023-05-10T04:05:25;1.10;;;1.00;;
7823;SDS011;3957;48.61947800;9.05303100;2023-05-10T04:06:27;2.03;;;0.90;;
7823;SDS011;3957;48.61947800;9.05303100;2023-05-10T04:07:29;1.30;;;1.05;;
7823;SDS011;3957;48.61947800;9.05303100;2023-05-10T04:08:31;2.03;;;0.98;;
7823;SDS011;3957;48.61947800;9.05303100;2023-05-10T04:09:32;1.38;;;1.10;;
7823;SDS011;3957;48.61947800;9.05303100;2023-05-10T04:10:34;2.03;;;1.00;;
7823;SDS011;3957;48.61947800;9.05303100;2023-05-10T04:11:35;1.23;;;1.13;;
7823;SDS011;3957;48.61947800;9.05303100;2023-05-10T04:12:37;2.70;;;1.10;;
7823;SDS011;3957;48.61947800;9.05303100;2023-05-10T04:13:38;1.60;;;1.02;;
7823;SDS011;3957;48.61947800;9.05303100;2023-05-10T04:14:40;1.20;;;1.10;;
7823;SDS011;3957;48.61947800;9.05303100;2023-05-10T04:15:42;1.63;;;1.00;;
7823;SDS011;3957;48.61947800;9.05303100;2023-05-10T04:16:44;2.30;;;1.20;;
7823;SDS011;3957;48.61947800;9.05303100;2023-05-10T04:17:45;1.63;;;1.02;;
7823;SDS011;3957;48.61947800;9.05303100;2023-05-10T04:18:47;4.82;;;1.33;;
7823;SDS011;3957;48.61947800;9.05303100;2023-05-10T04:19:49;1.70;;;1.10;;
7823;SDS011;3957;48.61947800;9.05303100;2023-05-10T04:20:54;1.97;;;1.27;;
7823;SDS011;3957;48.61947800;9.05303100;2023-05-10T04:21:55;2.60;;;1.13;;
7823;SDS011;3957;48.61947800;9.05303100;2023-05-10T04:22:57;1.10;;;1.00;;
7823;SDS011;3957;48.61947800;9.05303100;2023-05-10T04:23:59;2.75;;;0.90;;
7823;SDS011;3957;48.61947800;9.05303100;2023-05-10T04:25:01;1.00;;;1.00;;
7823;SDS011;3957;48.61947800;9.05303100;2023-05-10T04:26:02;3.20;;;1.20;;
7823;SDS011;3957;48.61947800;9.05303100;2023-05-10T04:27:04;1.63;;;0.90;;
7823;SDS011;3957;48.61947800;9.05303100;2023-05-10T04:28:05;1.20;;;1.10;;
7823;SDS011;3957;48.61947800;9.05303100;2023-05-10T04:29:07;1.40;;;0.90;;
7823;SDS011;3957;48.61947800;9.05303100;2023-05-10T04:30:09;1.30;;;1.20;;
7823;SDS011;3957;48.61947800;9.05303100;2023-05-10T04:31:11;5.32;;;1.27;;
7823;SDS011;3957;48.61947800;9.05303100;2023-05-10T04:32:13;2.87;;;1.00;;
7823;SDS011;3957;48.61947800;9.05303100;2023-05-10T04:33:17;2.75;;;1.15;;
7823;SDS011;3957;48.61947800;9.05303100;2023-05-10T04:34:20;1.27;;;1.17;;
7823;SDS011;3957;48.61947800;9.05303100;2023-05-10T04:35:22;1.13;;;1.00;;
7823;SDS011;3957;48.61947800;9.05303100;2023-05-10T04:36:23;2.10;;;1.00;;
7823;SDS011;3957;48.61947800;9.05303100;2023-05-10T04:37:25;2.20;;;1.35;;
7823;SDS011;3957;48.61947800;9.05303100;2023-05-10T04:38:26;1.50;;;1.02;;
7823;SDS011;3957;48.61947800;9.05303100;2023-05-10T04:39:28;1.05;;;1.00;;
7823;SDS011;3957;48.61947800;9.05303100;2023-05-10T04:40:29;1.30;;;1.10;;
7823;SDS011;3957;48.61947800;9.05303100;2023-05-10T04:41:31;1.65;;;1.20;;
7823;SDS011;3957;48.61947800;9.05303100;2023-05-10T04:42:32;1.20;;;1.10;;
7823;SDS011;3957;48.61947800;9.05303100;2023-05-10T04:43:34;1.30;;;1.15;;
7823;SDS011;3957;48.61947800;9.05303100;2023-05-10T04:44:36;1.27;;;1.17;;
7823;SDS011;3957;48.61947800;9.05303100;2023-05-10T04:45:38;1.80;;;1.20;;
7823;SDS011;3957;48.61947800;9.05303100;2023-05-10T04:46:39;1.10;;;1.00;;
7823;SDS011;3957;48.61947800;9.05303100;2023-05-10T04:47:41;2.65;;;1.27;;
7823;SDS011;3957;48.61947800;9.05303100;2023-05-10T04:48:43;3.20;;;1.20;;
7823;SDS011;3957;48.61947800;9.05303100;2023-05-10T04:49:44;1.10;;;1.10;;
7823;SDS011;3957;48.61947800;9.05303100;2023-05-10T04:50:46;1.90;;;1.00;;
7823;SDS011;3957;48.61947800;9.05303100;2023-05-10T04:51:48;1.10;;;1.00;;
7823;SDS011;3957;48.61947800;9.05303100;2023-05-10T04:52:49;1.90;;;1.20;;
7823;SDS011;3957;48.61947800;9.05303100;2023-05-10T04:53:52;1.70;;;1.13;;
7823;SDS011;3957;48.61947800;9.05303100;2023-05-10T04:55:06;1.70;;;1.10;;
7823;SDS011;3957;48.61947800;9.05303100;2023-05-10T04:56:10;1.30;;;1.20;;
7823;SDS011;3957;48.61947800;9.05303100;2023-05-10T04:57:12;3.13;;;1.23;;
7823;SDS011;3957;48.61947800;9.05303100;2023-05-10T04:58:13;1.10;;;1.00;;
7823;SDS011;3957;48.61947800;9.05303100;2023-05-10T04:59:15;1.25;;;0.90;;
7823;SDS011;3957;48.61947800;9.05303100;2023-05-10T05:00:16;1.40;;;1.30;;
7823;SDS011;3957;48.61947800;9.05303100;2023-05-10T05:01:18;1.45;;;1.13;;
7823;SDS011;3957;48.61947800;9.05303100;2023-05-10T05:02:20;1.33;;;1.10;;
7823;SDS011;3957;48.61947800;9.05303100;2023-05-10T05:03:22;0.95;;;0.95;;
7823;SDS011;3957;48.61947800;9.05303100;2023-05-10T05:04:24;1.20;;;1.10;;
7823;SDS011;3957;48.61947800;9.05303100;2023-05-10T05:05:26;2.90;;;1.30;;
7823;SDS011;3957;48.61947800;9.05303100;2023-05-10T05:06:28;1.95;;;1.25;;
7823;SDS011;3957;48.61947800;9.05303100;2023-05-10T05:07:29;2.53;;;1.40;;
7823;SDS011;3957;48.61947800;9.05303100;2023-05-10T05:08:31;1.55;;;1.40;;
7823;SDS011;3957;48.61947800;9.05303100;2023-05-10T05:09:33;1.35;;;1.25;;
7823;SDS011;3957;48.61947800;9.05303100;2023-05-10T05:10:35;1.75;;;1.33;;
7823;SDS011;3957;48.61947800;9.05303100;2023-05-10T05:11:36;1.42;;;1.30;;
7823;SDS011;3957;48.61947800;9.05303100;2023-05-10T05:12:38;1.15;;;1.05;;
7823;SDS011;3957;48.61947800;9.05303100;2023-05-10T05:13:40;2.85;;;1.25;;
7823;SDS011;3957;48.61947800;9.05303100;2023-05-10T05:14:41;1.10;;;1.00;;
7823;SDS011;3957;48.61947800;9.05303100;2023-05-10T05:15:43;1.27;;;1.17;;
7823;SDS011;3957;48.61947800;9.05303100;2023-05-10T05:16:45;1.17;;;1.00;;
7823;SDS011;3957;48.61947800;9.05303100;2023-05-10T05:17:46;1.33;;;1.23;;
7823;SDS011;3957;48.61947800;9.05303100;2023-05-10T05:18:48;1.20;;;1.10;;
7823;SDS011;3957;48.61947800;9.05303100;2023-05-10T05:19:49;1.73;;;1.33;;
7823;SDS011;3957;48.61947800;9.05303100;2023-05-10T05:20:51;1.45;;;1.30;;
7823;SDS011;3957;48.61947800;9.05303100;2023-05-10T05:21:55;1.35;;;1.25;;
7823;SDS011;3957;48.61947800;9.05303100;2023-05-10T05:22:57;1.83;;;1.05;;
7823;SDS011;3957;48.61947800;9.05303100;2023-05-10T05:23:58;1.30;;;1.20;;
7823;SDS011;3957;48.61947800;9.05303100;2023-05-10T05:25:01;2.03;;;0.98;;
7823;SDS011;3957;48.61947800;9.05303100;2023-05-10T05:26:03;1.67;;;1.20;;
7823;SDS011;3957;48.61947800;9.05303100;2023-05-10T05:27:05;1.20;;;1.10;;
7823;SDS011;3957;48.61947800;9.05303100;2023-05-10T05:28:07;1.30;;;1.05;;
7823;SDS011;3957;48.61947800;9.05303100;2023-05-10T05:29:08;1.77;;;1.30;;
7823;SDS011;3957;48.61947800;9.05303100;2023-05-10T05:30:10;2.40;;;1.00;;
7823;SDS011;3957;48.61947800;9.05303100;2023-05-10T05:31:12;1.05;;;1.00;;
7823;SDS011;3957;48.61947800;9.05303100;2023-05-10T05:32:15;1.30;;;1.10;;
7823;SDS011;3957;48.61947800;9.05303100;2023-05-10T05:33:16;1.10;;;1.00;;
7823;SDS011;3957;48.61947800;9.05303100;2023-05-10T05:34:18;1.55;;;1.10;;
7823;SDS011;3957;48.61947800;9.05303100;2023-05-10T05:35:21;1.42;;;1.20;;
7823;SDS011;3957;48.61947800;9.05303100;2023-05-10T05:36:23;1.65;;;1.30;;
7823;SDS011;3957;48.61947800;9.05303100;2023-05-10T05:37:24;1.50;;;1.30;;
7823;SDS011;3957;48.61947800;9.05303100;2023-05-10T05:38:26;1.27;;;1.15;;
7823;SDS011;3957;48.61947800;9.05303100;2023-05-10T05:39:27;1.25;;;1.17;;
7823;SDS011;3957;48.61947800;9.05303100;2023-05-10T05:40:29;1.20;;;1.00;;
7823;SDS011;3957;48.61947800;9.05303100;2023-05-10T05:41:30;1.50;;;1.40;;
7823;SDS011;3957;48.61947800;9.05303100;2023-05-10T05:42:32;1.60;;;0.93;;
7823;SDS011;3957;48.61947800;9.05303100;2023-05-10T05:43:34;1.67;;;1.25;;
7823;SDS011;3957;48.61947800;9.05303100;2023-05-10T05:44:38;3.40;;;1.30;;
7823;SDS011;3957;48.61947800;9.05303100;2023-05-10T05:45:40;1.55;;;1.30;;
7823;SDS011;3957;48.61947800;9.05303100;2023-05-10T05:46:42;1.70;;;1.30;;
7823;SDS011;3957;48.61947800;9.05303100;2023-05-10T05:47:43;1.60;;;1.50;;
7823;SDS011;3957;48.61947800;9.05303100;2023-05-10T05:48:45;1.30;;;1.20;;
7823;SDS011;3957;48.61947800;9.05303100;2023-05-10T05:49:46;2.10;;;1.40;;
7823;SDS011;3957;48.61947800;9.05303100;2023-05-10T05:50:48;1.40;;;1.30;;